This is the latest recevied weather packets stored in our database for station/object KG7FOQ-13. If no packets are shown the sender has not sent any weather packets the latest 10 day(s).
| Time | Temp. | Humidity | Pressure | Rain* | Wind** | Luminosity | Snow |
|---|---|---|---|---|---|---|---|
| 1777370477 | 2.22° C | 71% | 1017 hPa | 0 mm | - | - | - |
| 1777370176 | 2.22° C | 70% | 1016.9 hPa | 0 mm | - | - | - |
| 1777369876 | 2.22° C | 71% | 1016.9 hPa | 0 mm | - | - | - |
| 1777369575 | 2.78° C | 69% | 1016.9 hPa | 0 mm | - | - | - |
| 1777369275 | 2.78° C | 70% | 1016.9 hPa | 0 mm | - | - | - |
| 1777368974 | 2.22° C | 71% | 1016.7 hPa | 0 mm | - | - | - |
| 1777368673 | 2.22° C | 69% | 1016.9 hPa | 0 mm | - | - | - |
| 1777368373 | 3.89° C | 64% | 1016.9 hPa | 0 mm | - | - | - |
| 1777368072 | 3.89° C | 64% | 1016.9 hPa | 0 mm | - | - | - |
| 1777367772 | 3.33° C | 65% | 1016.9 hPa | 0 mm | - | - | - |
| 1777367471 | 3.33° C | 66% | 1017 hPa | 0 mm | - | - | - |
| 1777367171 | 3.89° C | 65% | 1016.9 hPa | 0 mm | - | - | - |
| 1777366870 | 4.44° C | 63% | 1016.9 hPa | 0 mm | - | - | - |
| 1777366570 | 4.44° C | 62% | 1017 hPa | 0 mm | - | - | - |
| 1777366269 | 4.44° C | 62% | 1016.9 hPa | 0 mm | - | - | - |
| 1777365668 | 3.89° C | 64% | 1017 hPa | 0 mm | - | - | - |
| 1777365368 | 3.89° C | 65% | 1016.9 hPa | 0 mm | - | - | - |
| 1777365067 | 3.33° C | 67% | 1016.9 hPa | 0 mm | - | - | - |
| 1777364767 | 2.78° C | 67% | 1016.9 hPa | 0 mm | - | - | - |
| 1777364466 | 3.33° C | 67% | 1016.9 hPa | 0 mm | - | - | - |
| 1777364166 | 3.33° C | 65% | 1016.9 hPa | 0 mm | - | - | - |
| 1777363264 | 4.44° C | 60% | 1016.7 hPa | 0 mm | - | - | - |
| 1777362964 | 5° C | 59% | 1016.9 hPa | 0 mm | - | - | - |
| 1777362663 | 5° C | 60% | 1016.9 hPa | 0 mm | - | - | - |
| 1777362363 | 4.44° C | 61% | 1016.9 hPa | 0 mm | - | - | - |
* Rain latest hour (hover to see other rain measurements)
** Current wind speed in m/s (hover to see current wind gust speed)